Peacock, Texas
Current Conditions -  °F | °C
As of 8:35 AM on Thursday 29 Jan 2015 (Local Time) from KSWW Reporting Station
Clear Clear  
Wind Chill: 50°   Ceiling: Unl
Heat Index: 50°   Visibility: 10mi
Dew Point: 36°   Wind: 13mph
Humidity: 57%   Direction: 360°N
Pressure: 30.35"   Gusts: NA
Location:  33.1287°N, 100.317°W
Report Text: KSWW 291435Z AUTO 36011KT 10SM CLR 10/02 A3035 RMK AO2 T01020020
Loading
Personal Weather Stations






























Interactive Weather Map New forecast layout! Learn more

10-Day Weather Forecast

Advertisements
Track Severe Weather on mobile